Kakabeka Falls, Canada
Current Conditions -  °F | °C
As of 10:00 AM on Friday 24 Oct 2014 (Local Time) from CYQT Reporting Station
Overcast Overcast  
Wind Chill: 50°   Ceiling: 12000
Heat Index: 50°   Visibility: 10mi
Dew Point: 48°   Wind: 3mph
Humidity: 94%   Direction: 190°S
Pressure: 29.85"   Gusts: NA
Location:  48.4°N, 89.61°W
Report Text: CYQT 241400Z 19003KT 130V190 10SM FEW006 SCT012 OVC120 10/09 A2985 RMK ST1SC2AC5 BR SLP113
Loading
Personal Weather Stations






























Interactive Weather Map
Tropical Storm Tracking
New forecast layout! Learn more

10-Day Weather Forecast

Advertisements
Track Severe Weather on mobile